Time;durP1;ratioP1;P1;durP2;ratioP2;P2;SDS_P1;SDS_P2;PMS_P1;PMS_P2;Temp;Humidity;BMP_temperature;BMP_pressure;BME280_temperature;BME280_humidity;BME280_pressure;Samples;Min_cycle;Max_cycle;Signal;HPM_P1;HPM_P2
2023/12/29 00:00:34;;;;;;;2.63;1.20;;;;;;;10.95;62.69;100542.25;5034271;28;20755;-81
2023/12/29 00:03:02;;;;;;;2.13;1.03;;;;;;;11.06;63.04;100545.50;5034335;28;20268;-81
2023/12/29 00:05:28;;;;;;;1.27;1.00;;;;;;;11.10;63.31;100548.03;5035779;28;20252;-81
2023/12/29 00:07:54;;;;;;;2.23;1.40;;;;;;;11.24;62.89;100531.25;5036073;28;20203;-81
2023/12/29 00:10:21;;;;;;;2.40;1.03;;;;;;;10.78;64.07;100555.59;5034277;28;20198;-82
2023/12/29 00:12:47;;;;;;;4.03;1.13;;;;;;;10.95;63.13;100516.97;5034003;28;20280;-81
2023/12/29 00:15:13;;;;;;;2.07;1.00;;;;;;;10.98;63.23;100522.16;5033710;28;20206;-82
2023/12/29 00:17:40;;;;;;;2.00;1.00;;;;;;;11.05;62.87;100533.34;5032947;28;20214;-82
2023/12/29 00:20:09;;;;;;;4.77;1.00;;;;;;;11.19;62.65;100530.47;5034800;28;20207;-82
2023/12/29 00:22:35;;;;;;;2.07;1.00;;;;;;;11.09;62.60;100532.38;5034347;28;20202;-82
2023/12/29 00:25:02;;;;;;;1.70;0.73;;;;;;;11.06;63.14;100550.72;5034361;28;20203;-83
2023/12/29 00:27:29;;;;;;;2.47;1.43;;;;;;;11.03;63.16;100529.91;5040318;28;20199;-83
2023/12/29 00:29:55;;;;;;;2.63;1.10;;;;;;;11.14;63.35;100525.34;5034963;28;20210;-83
2023/12/29 00:32:21;;;;;;;2.70;1.00;;;;;;;11.03;63.83;100514.22;5035303;28;20221;-83
2023/12/29 00:34:48;;;;;;;2.37;1.00;;;;;;;11.04;63.74;100516.81;5036099;28;20641;-82
2023/12/29 00:37:15;;;;;;;2.23;1.10;;;;;;;11.11;63.87;100531.47;5035119;28;20210;-82
2023/12/29 00:39:42;;;;;;;2.17;1.20;;;;;;;10.99;64.43;100502.97;5034523;28;20677;-83
2023/12/29 00:42:08;;;;;;;2.40;1.07;;;;;;;11.08;64.42;100496.69;5035290;28;20694;-83
2023/12/29 00:44:35;;;;;;;2.53;1.23;;;;;;;11.17;64.81;100472.16;5001190;28;1016733;-83
2023/12/29 00:47:01;;;;;;;2.07;1.00;;;;;;;11.25;64.73;100484.16;5034927;28;20238;-82
2023/12/29 00:49:27;;;;;;;4.53;1.20;;;;;;;11.21;64.53;100473.81;5035763;28;20206;-83
2023/12/29 00:51:54;;;;;;;2.33;1.37;;;;;;;11.28;64.31;100468.41;5035556;28;20284;-83
2023/12/29 00:54:21;;;;;;;4.20;1.37;;;;;;;11.36;64.53;100470.00;5036016;28;20239;-82
2023/12/29 00:56:52;;;;;;;3.80;1.20;;;;;;;11.20;64.51;100469.47;5035614;28;20206;-82
2023/12/29 00:59:20;;;;;;;2.13;1.07;;;;;;;11.16;64.62;100454.75;5035696;28;20202;-83
2023/12/29 01:01:46;;;;;;;2.57;1.40;;;;;;;11.09;65.44;100436.59;5035406;28;20207;-83
2023/12/29 01:04:12;;;;;;;1.80;1.23;;;;;;;10.92;64.85;100438.69;5036974;28;20261;-82
2023/12/29 01:06:39;;;;;;;1.57;0.90;;;;;;;10.93;64.96;100432.59;5036345;28;20236;-82
2023/12/29 01:09:05;;;;;;;2.33;1.00;;;;;;;11.08;64.86;100432.28;5035715;28;20252;-82
2023/12/29 01:11:33;;;;;;;1.87;0.90;;;;;;;10.91;64.85;100422.16;5035433;28;20199;-82
2023/12/29 01:13:59;;;;;;;2.77;1.03;;;;;;;10.99;66.36;100415.94;5036327;28;20230;-82
2023/12/29 01:16:25;;;;;;;1.60;1.03;;;;;;;10.97;66.03;100412.50;5034709;28;20207;-83
2023/12/29 01:18:51;;;;;;;2.50;1.00;;;;;;;10.81;67.40;100384.06;5035508;28;20273;-82
2023/12/29 01:21:18;;;;;;;1.80;1.33;;;;;;;10.77;67.86;100364.16;5035952;28;20268;-83
2023/12/29 01:23:44;;;;;;;5.27;1.20;;;;;;;11.02;67.30;100343.59;5034662;28;20280;-83
2023/12/29 01:26:11;;;;;;;4.33;1.07;;;;;;;10.84;67.12;100344.84;5034629;28;20261;-82
2023/12/29 01:28:38;;;;;;;2.77;1.23;;;;;;;10.88;67.40;100353.47;5035726;28;20214;-82
2023/12/29 01:31:05;;;;;;;3.13;1.10;;;;;;;10.96;67.69;100350.69;5035256;28;20256;-82
2023/12/29 01:33:31;;;;;;;2.40;1.20;;;;;;;11.01;67.26;100354.06;5035420;28;20248;-83
2023/12/29 01:35:57;;;;;;;2.67;0.90;;;;;;;11.03;67.78;100324.41;5035357;28;20739;-82
2023/12/29 01:38:24;;;;;;;2.53;0.90;;;;;;;10.91;68.45;100328.16;5034749;28;20210;-83
2023/12/29 01:40:50;;;;;;;1.93;1.20;;;;;;;11.00;68.33;100308.81;5036985;28;20210;-82
2023/12/29 01:43:16;;;;;;;2.07;0.97;;;;;;;11.04;67.78;100313.06;5039193;28;20226;-83
2023/12/29 01:45:44;;;;;;;1.93;0.93;;;;;;;11.08;67.92;100292.94;5039334;28;20255;-83
2023/12/29 01:48:10;;;;;;;3.70;1.00;;;;;;;10.82;68.29;100328.38;5038629;28;20210;-82
2023/12/29 01:50:36;;;;;;;1.53;1.00;;;;;;;11.07;68.80;100288.63;5039414;28;20264;-83
2023/12/29 01:53:04;;;;;;;3.20;1.00;;;;;;;11.11;70.51;100254.53;5038259;28;20233;-83
2023/12/29 01:55:32;;;;;;;2.10;1.07;;;;;;;11.27;70.61;100208.00;5038512;28;20210;-83
2023/12/29 01:57:58;;;;;;;4.23;0.90;;;;;;;11.10;70.04;100224.13;5039509;28;20210;-83
2023/12/29 02:00:25;;;;;;;2.83;2.23;;;;;;;10.82;70.47;100225.66;5038983;28;21662;-83
2023/12/29 02:02:54;;;;;;;3.47;1.20;;;;;;;10.95;69.81;100198.38;5044900;28;20223;-82
2023/12/29 02:05:23;;;;;;;1.53;0.90;;;;;;;11.01;69.72;100218.25;5038342;28;20206;-83
2023/12/29 02:07:52;;;;;;;1.30;0.77;;;;;;;11.10;69.26;100203.22;5043528;28;20201;-83
2023/12/29 02:10:19;;;;;;;2.03;1.17;;;;;;;10.94;69.59;100199.25;5044389;28;20198;-83
2023/12/29 02:12:48;;;;;;;3.07;1.23;;;;;;;11.12;69.52;100190.13;5046282;28;20304;-83
2023/12/29 02:15:16;;;;;;;4.00;0.97;;;;;;;11.10;70.42;100184.09;5045773;28;20210;-82
2023/12/29 02:17:46;;;;;;;1.63;0.80;;;;;;;11.15;70.53;100184.81;5043718;28;20225;-84
2023/12/29 02:20:15;;;;;;;2.07;1.00;;;;;;;11.15;70.29;100186.56;5041182;28;20228;-83
2023/12/29 02:22:41;;;;;;;2.13;0.93;;;;;;;11.16;70.85;100169.97;5043654;28;20218;-83
2023/12/29 02:25:09;;;;;;;2.37;1.00;;;;;;;11.00;70.44;100167.78;5047455;28;20201;-82
2023/12/29 02:27:44;;;;;;;4.10;1.20;;;;;;;11.10;70.94;100145.75;5043632;28;20210;-83
2023/12/29 02:30:14;;;;;;;3.93;0.90;;;;;;;10.97;70.89;100160.00;5043934;28;20263;-81
2023/12/29 02:32:43;;;;;;;2.03;0.97;;;;;;;11.30;70.55;100124.31;5045722;28;20287;-83
2023/12/29 02:35:11;;;;;;;1.67;1.10;;;;;;;11.11;70.43;100137.00;5044318;28;20599;-82
2023/12/29 02:37:40;;;;;;;1.83;1.10;;;;;;;11.21;70.60;100132.38;5044370;28;20252;-82
2023/12/29 02:40:10;;;;;;;1.47;0.93;;;;;;;11.37;70.29;100134.59;5042279;28;20681;-83
2023/12/29 02:42:36;;;;;;;2.80;1.37;;;;;;;11.03;70.94;100125.91;5038714;28;20207;-81
2023/12/29 02:45:03;;;;;;;3.00;0.97;;;;;;;11.08;70.96;100121.41;5044609;28;20206;-84
2023/12/29 02:47:29;;;;;;;2.33;0.90;;;;;;;11.15;71.67;100106.44;5044972;28;20260;-82
2023/12/29 02:49:56;;;;;;;3.80;1.13;;;;;;;10.97;71.46;100110.38;5053462;28;20205;-83
2023/12/29 02:52:22;;;;;;;1.27;0.60;;;;;;;11.05;71.26;100095.38;5043404;28;20360;-83
2023/12/29 02:54:48;;;;;;;3.03;1.07;;;;;;;11.14;71.09;100104.72;5043072;28;20222;-82
2023/12/29 02:57:16;;;;;;;1.53;0.80;;;;;;;10.98;71.64;100083.38;5045099;28;20575;-83
2023/12/29 02:59:42;;;;;;;1.40;0.90;;;;;;;11.13;71.49;100062.06;5042148;28;20202;-83
2023/12/29 03:02:09;;;;;;;1.57;0.70;;;;;;;11.13;71.75;100074.28;5044951;28;20202;-83
2023/12/29 03:04:35;;;;;;;2.23;0.77;;;;;;;11.33;71.14;100069.34;5040828;28;20218;-82
2023/12/29 03:07:01;;;;;;;1.60;0.70;;;;;;;11.24;71.72;100080.06;5040364;28;20206;-83
2023/12/29 03:09:28;;;;;;;1.13;0.70;;;;;;;11.00;72.49;100065.91;5036579;28;20206;-83
2023/12/29 03:11:54;;;;;;;2.77;0.90;;;;;;;11.13;72.80;100050.75;5036611;28;20660;-83
2023/12/29 03:14:22;;;;;;;3.17;0.80;;;;;;;11.23;72.96;100048.75;5036912;28;20226;-83
2023/12/29 03:16:48;;;;;;;1.03;0.80;;;;;;;11.04;73.13;100051.88;5037202;28;20262;-83
2023/12/29 03:19:14;;;;;;;5.10;1.37;;;;;;;11.14;74.06;100000.25;5037239;28;20206;-83
2023/12/29 03:21:41;;;;;;;2.57;0.70;;;;;;;11.05;73.49;99993.50;5037396;28;20206;-83
2023/12/29 03:24:07;;;;;;;2.83;0.80;;;;;;;11.07;73.28;99977.78;5037196;28;20252;-83
2023/12/29 03:26:34;;;;;;;3.70;0.87;;;;;;;11.02;73.00;100000.56;5037325;28;20236;-83
2023/12/29 03:29:00;;;;;;;3.50;0.80;;;;;;;11.17;72.26;100014.97;5037318;28;20203;-83
2023/12/29 03:31:28;;;;;;;2.57;0.87;;;;;;;11.28;71.53;100025.97;5041250;28;20264;-83
2023/12/29 03:33:54;;;;;;;1.63;0.63;;;;;;;11.06;71.33;100028.31;5047377;28;20268;-81
2023/12/29 03:36:21;;;;;;;1.70;0.73;;;;;;;11.12;71.72;100047.31;5044203;28;20268;-83
2023/12/29 03:38:47;;;;;;;0.97;0.60;;;;;;;11.16;71.31;100065.47;5037824;28;20254;-82
2023/12/29 03:41:13;;;;;;;1.17;0.50;;;;;;;11.03;72.42;100054.53;5036536;28;20248;-83
2023/12/29 03:43:40;;;;;;;2.63;0.60;;;;;;;11.28;73.54;99990.25;5036716;28;20237;-83
2023/12/29 03:46:16;;;;;;;2.47;0.63;;;;;;;11.28;75.24;99966.72;5036961;28;20262;-83
2023/12/29 03:48:44;;;;;;;1.03;0.60;;;;;;;11.19;75.78;99963.53;5036706;28;20224;-83
2023/12/29 03:51:10;;;;;;;1.87;0.60;;;;;;;11.09;76.19;99940.28;5037326;28;20206;-83
2023/12/29 03:53:36;;;;;;;1.07;0.50;;;;;;;11.00;77.38;99850.88;5036292;28;20589;-83
2023/12/29 03:56:05;;;;;;;3.03;0.70;;;;;;;10.87;78.12;99834.75;5036858;28;20237;-83
2023/12/29 03:58:32;;;;;;;1.80;0.57;;;;;;;10.44;78.75;99842.06;5036998;28;20206;-83
2023/12/29 04:00:58;;;;;;;1.73;0.70;;;;;;;10.60;79.22;99815.53;5037379;28;20676;-84
2023/12/29 04:03:24;;;;;;;1.03;0.80;;;;;;;10.23;81.20;99811.34;5036181;28;20248;-83
2023/12/29 04:05:52;;;;;;;1.00;0.50;;;;;;;10.50;80.58;99775.78;5037270;28;20233;-83
2023/12/29 04:08:18;;;;;;;1.37;0.60;;;;;;;10.44;81.23;99744.66;5037430;28;20264;-83
2023/12/29 04:10:45;;;;;;;1.43;0.60;;;;;;;10.55;81.67;99723.50;5037141;28;20232;-84
2023/12/29 04:13:11;;;;;;;0.83;0.70;;;;;;;10.40;81.70;99745.66;5036454;28;20234;-83
2023/12/29 04:15:38;;;;;;;1.83;0.80;;;;;;;10.59;82.30;99730.31;5036048;28;20681;-83
2023/12/29 04:18:05;;;;;;;1.47;0.60;;;;;;;10.59;81.38;99741.59;5036274;28;20680;-83
2023/12/29 04:20:31;;;;;;;2.07;0.70;;;;;;;10.57;81.89;99742.56;5037131;28;20742;-83
2023/12/29 04:22:59;;;;;;;1.33;1.00;;;;;;;10.53;82.17;99733.97;5037686;28;20240;-83
2023/12/29 04:25:25;;;;;;;1.50;0.97;;;;;;;10.40;81.99;99746.50;5037704;28;20212;-83
2023/12/29 04:27:51;;;;;;;4.37;0.90;;;;;;;10.26;82.76;99746.88;5036483;28;20579;-83
2023/12/29 04:30:18;;;;;;;0.70;0.60;;;;;;;10.43;82.41;99732.53;5036224;28;20264;-83
2023/12/29 04:32:44;;;;;;;1.63;0.60;;;;;;;10.15;82.17;99733.31;5036470;28;20206;-83
2023/12/29 04:35:12;;;;;;;2.13;0.63;;;;;;;10.37;83.09;99665.75;5036665;28;20650;-83
2023/12/29 04:37:38;;;;;;;2.43;0.90;;;;;;;10.32;82.08;99671.06;5035797;28;20252;-83
2023/12/29 04:40:08;;;;;;;3.27;0.80;;;;;;;10.41;81.34;99696.06;5036200;28;20241;-83
2023/12/29 04:42:34;;;;;;;2.63;0.90;;;;;;;10.37;80.45;99688.38;5035699;28;20209;-83
2023/12/29 04:45:00;;;;;;;1.03;0.50;;;;;;;10.52;79.52;99693.97;5039440;28;20249;-83
2023/12/29 04:47:27;;;;;;;1.70;0.70;;;;;;;10.56;78.72;99741.69;5034800;28;20617;-83
2023/12/29 04:49:53;;;;;;;1.00;0.50;;;;;;;10.49;78.16;99761.06;5036232;28;20269;-83
2023/12/29 04:52:19;;;;;;;2.87;0.77;;;;;;;10.61;78.36;99773.72;5035691;28;20603;-83
2023/12/29 04:54:46;;;;;;;1.57;0.60;;;;;;;10.56;78.39;99804.31;5035472;28;20279;-84
2023/12/29 04:57:13;;;;;;;3.00;0.70;;;;;;;10.51;78.29;99804.47;5035344;28;20206;-83
2023/12/29 04:59:40;;;;;;;1.70;0.63;;;;;;;10.55;78.41;99810.47;5035616;28;20268;-83
2023/12/29 05:02:06;;;;;;;1.00;0.90;;;;;;;10.47;77.89;99804.59;5035140;28;20206;-83
2023/12/29 05:04:33;;;;;;;1.20;0.67;;;;;;;10.72;78.91;99799.50;5035912;28;20226;-83
2023/12/29 05:06:59;;;;;;;2.07;0.70;;;;;;;10.73;79.55;99775.97;5035960;28;20206;-83
2023/12/29 05:09:25;;;;;;;2.13;0.70;;;;;;;10.74;80.21;99753.31;5035806;28;20208;-82
2023/12/29 05:11:52;;;;;;;1.73;0.60;;;;;;;10.72;79.83;99769.06;5034951;28;20256;-83
2023/12/29 05:14:19;;;;;;;2.77;0.80;;;;;;;10.54;80.37;99751.31;5034261;28;20230;-84
2023/12/29 05:16:45;;;;;;;1.00;0.80;;;;;;;10.75;80.45;99754.19;5028642;28;20206;-83
2023/12/29 05:19:12;;;;;;;1.07;0.60;;;;;;;10.79;81.06;99751.44;5037159;28;20210;-83
2023/12/29 05:21:38;;;;;;;1.37;0.73;;;;;;;10.66;82.31;99740.53;5037119;28;20685;-83
2023/12/29 05:24:05;;;;;;;1.23;0.90;;;;;;;10.72;82.83;99709.03;5036031;28;20230;-83
2023/12/29 05:26:32;;;;;;;1.40;0.70;;;;;;;10.62;82.87;99707.56;5036885;28;20274;-83
2023/12/29 05:28:58;;;;;;;2.00;0.87;;;;;;;10.60;83.63;99701.53;5036775;28;20259;-83
2023/12/29 05:31:26;;;;;;;3.60;0.80;;;;;;;10.66;84.90;99666.56;5036636;28;20202;-83
2023/12/29 05:33:54;;;;;;;1.17;0.70;;;;;;;10.64;86.78;99624.00;5036890;28;20230;-83
2023/12/29 05:36:21;;;;;;;2.03;1.00;;;;;;;10.44;87.26;99611.59;5036486;28;20758;-84
2023/12/29 05:38:47;;;;;;;1.50;0.90;;;;;;;10.47;87.89;99586.28;5036521;28;20214;-83
2023/12/29 05:41:14;;;;;;;1.90;0.93;;;;;;;10.46;87.85;99570.66;5037402;28;20209;-83
2023/12/29 05:43:41;;;;;;;1.57;0.80;;;;;;;10.22;89.14;99562.69;5036639;28;20253;-83
2023/12/29 05:46:10;;;;;;;1.30;0.70;;;;;;;10.25;89.08;99541.75;5036561;28;20214;-84
2023/12/29 05:48:39;;;;;;;0.67;0.63;;;;;;;10.36;88.86;99548.38;5036337;28;20232;-83
2023/12/29 05:51:08;;;;;;;1.57;0.70;;;;;;;10.46;88.28;99552.41;5037417;28;20272;-83
2023/12/29 05:53:35;;;;;;;1.50;0.80;;;;;;;10.65;87.41;99563.09;5037404;28;20280;-83
2023/12/29 05:56:01;;;;;;;1.43;0.97;;;;;;;10.70;86.70;99574.22;5036665;28;20233;-84
2023/12/29 05:58:27;;;;;;;2.47;0.70;;;;;;;10.75;86.02;99592.34;5037073;28;20685;-83
2023/12/29 06:00:55;;;;;;;2.00;1.00;;;;;;;10.65;85.93;99602.25;5036142;28;20214;-83
2023/12/29 06:03:21;;;;;;;1.43;0.93;;;;;;;10.62;86.02;99600.56;5036774;28;20222;-84
2023/12/29 06:05:49;;;;;;;2.10;0.90;;;;;;;10.58;86.14;99612.00;5037296;28;20267;-84
2023/12/29 06:08:15;;;;;;;0.80;0.80;;;;;;;10.46;85.85;99599.38;5036923;28;20210;-83
2023/12/29 06:10:42;;;;;;;2.13;1.03;;;;;;;10.64;85.67;99611.81;5035981;28;20689;-83
2023/12/29 06:13:08;;;;;;;4.17;1.00;;;;;;;10.77;84.40;99624.47;5036700;28;20229;-83
2023/12/29 06:15:34;;;;;;;3.33;0.90;;;;;;;10.81;83.67;99645.22;5035933;28;20265;-83
2023/12/29 06:18:01;;;;;;;3.13;1.30;;;;;;;10.60;83.56;99675.44;5036088;28;20206;-83
2023/12/29 06:20:27;;;;;;;2.60;1.20;;;;;;;10.69;83.44;99671.72;5036684;28;20238;-83
2023/12/29 06:22:56;;;;;;;3.00;1.30;;;;;;;10.65;83.26;99683.16;5036166;28;20586;-84
2023/12/29 06:25:22;;;;;;;1.10;0.80;;;;;;;10.75;82.67;99687.19;5036636;28;20202;-83
2023/12/29 06:27:49;;;;;;;1.13;0.80;;;;;;;10.79;82.54;99694.00;5040829;28;20202;-83
2023/12/29 06:30:15;;;;;;;2.83;1.00;;;;;;;10.68;82.42;99699.56;5040658;28;20202;-84
2023/12/29 06:32:42;;;;;;;3.37;1.00;;;;;;;10.82;82.26;99693.03;5039601;28;20292;-84
2023/12/29 06:35:09;;;;;;;3.83;2.07;;;;;;;10.71;82.25;99706.44;5040182;28;20226;-84
2023/12/29 06:37:37;;;;;;;2.13;1.20;;;;;;;10.71;82.28;99696.00;5040010;28;20218;-83
2023/12/29 06:40:06;;;;;;;1.63;1.10;;;;;;;10.55;82.32;99718.28;5040582;28;20565;-83
2023/12/29 06:42:32;;;;;;;2.37;1.30;;;;;;;10.69;82.07;99703.03;5040156;28;20209;-82
2023/12/29 06:44:59;;;;;;;4.10;1.23;;;;;;;10.63;81.56;99713.66;5040081;28;20202;-84
2023/12/29 06:47:24;;;;;;;2.83;1.00;;;;;;;10.80;81.03;99720.97;5039109;28;20206;-83
2023/12/29 06:49:50;;;;;;;3.23;1.20;;;;;;;10.84;80.89;99728.66;5040216;28;20284;-84
2023/12/29 06:52:17;;;;;;;2.23;0.90;;;;;;;10.91;80.22;99748.44;5040089;28;20268;-83
2023/12/29 06:54:43;;;;;;;3.30;1.70;;;;;;;10.63;80.44;99768.47;5039932;28;20704;-82
2023/12/29 06:57:14;;;;;;;2.53;1.30;;;;;;;10.89;80.40;99758.06;5039500;28;20210;-82
2023/12/29 06:59:40;;;;;;;2.97;1.30;;;;;;;10.56;80.46;99774.75;5040061;28;20206;-83
2023/12/29 07:02:07;;;;;;;3.10;1.20;;;;;;;10.73;80.73;99759.47;5039664;28;20273;-82
2023/12/29 07:04:33;;;;;;;2.10;1.10;;;;;;;10.65;81.05;99779.72;5039360;28;20232;-82
2023/12/29 07:07:01;;;;;;;2.23;1.07;;;;;;;10.97;80.66;99773.50;5039654;28;20272;-82
2023/12/29 07:09:27;;;;;;;3.83;1.23;;;;;;;10.83;80.26;99793.97;5039271;28;20213;-82
2023/12/29 07:11:54;;;;;;;3.53;1.10;;;;;;;10.75;79.93;99795.97;5040173;28;20210;-82
2023/12/29 07:14:22;;;;;;;2.40;1.00;;;;;;;10.70;80.39;99806.53;5039182;28;20235;-82
2023/12/29 07:16:48;;;;;;;3.17;1.30;;;;;;;10.84;80.15;99817.44;5039015;28;20214;-82
2023/12/29 07:19:15;;;;;;;2.97;1.53;;;;;;;10.97;79.79;99810.06;5039290;28;20349;-82
2023/12/29 07:21:41;;;;;;;4.67;1.37;;;;;;;10.96;79.57;99846.66;5039608;28;20203;-82
2023/12/29 07:24:08;;;;;;;4.23;1.40;;;;;;;10.96;79.23;99863.22;5039404;28;20222;-82
2023/12/29 07:26:34;;;;;;;2.93;1.10;;;;;;;10.90;79.16;99839.88;5039701;28;20210;-82
2023/12/29 07:28:59;;;;;;;2.03;1.10;;;;;;;10.86;78.32;99860.00;5040043;28;20206;-83
2023/12/29 07:31:27;;;;;;;2.40;1.30;;;;;;;10.86;78.29;99851.31;5040480;28;20629;-84
2023/12/29 07:33:53;;;;;;;3.07;1.30;;;;;;;11.02;78.13;99864.75;5039600;28;20233;-83
2023/12/29 07:36:20;;;;;;;3.07;1.33;;;;;;;10.96;77.53;99899.78;5039417;28;20232;-83
2023/12/29 07:38:46;;;;;;;4.70;1.27;;;;;;;11.04;77.51;99903.00;5037760;28;20206;-83
2023/12/29 07:41:13;;;;;;;3.70;1.40;;;;;;;10.99;77.43;99907.50;5038825;28;20205;-82
2023/12/29 07:43:39;;;;;;;3.83;1.20;;;;;;;11.03;77.52;99916.94;5039267;28;20264;-82
2023/12/29 07:46:06;;;;;;;5.70;1.83;;;;;;;11.11;76.78;99933.25;5039248;28;20234;-82
2023/12/29 07:48:33;;;;;;;3.73;1.60;;;;;;;10.88;76.42;99943.50;5038882;28;20263;-82
2023/12/29 07:51:06;;;;;;;3.93;1.20;;;;;;;11.09;76.74;99942.88;5038750;28;20212;-82
2023/12/29 07:53:32;;;;;;;2.93;1.50;;;;;;;11.10;76.66;99954.22;5037779;28;20230;-82
2023/12/29 07:55:58;;;;;;;3.70;1.10;;;;;;;11.21;75.97;99961.72;5038534;28;20214;-82
2023/12/29 07:58:24;;;;;;;5.67;1.40;;;;;;;11.15;75.52;99985.41;5039496;28;20206;-85
2023/12/29 08:00:51;;;;;;;2.73;1.13;;;;;;;11.06;75.48;99990.00;5040165;28;20198;-84
2023/12/29 08:03:17;;;;;;;3.27;1.37;;;;;;;10.95;74.82;99999.88;5039296;28;20230;-84
2023/12/29 08:05:46;;;;;;;3.67;1.37;;;;;;;11.06;74.42;100018.75;5039841;28;20203;-83
2023/12/29 08:08:12;;;;;;;4.10;1.50;;;;;;;11.20;73.99;100033.16;5049508;28;20221;-82
2023/12/29 08:10:38;;;;;;;2.83;1.40;;;;;;;11.09;73.93;100039.53;5057280;28;20190;-82
2023/12/29 08:13:05;;;;;;;4.17;1.03;;;;;;;10.90;73.80;100067.03;5058190;28;20239;-82
2023/12/29 08:15:31;;;;;;;3.63;1.43;;;;;;;11.06;73.98;100052.69;5057665;28;20215;-82
2023/12/29 08:17:57;;;;;;;2.87;1.30;;;;;;;11.22;73.70;100065.31;5057656;28;20213;-83
2023/12/29 08:20:24;;;;;;;4.20;1.40;;;;;;;10.90;72.99;100096.66;5057958;28;20203;-80
2023/12/29 08:22:52;;;;;;;4.47;1.47;;;;;;;11.14;72.96;100073.38;5057518;28;20191;-83
2023/12/29 08:25:18;;;;;;;4.37;1.37;;;;;;;11.10;72.78;100083.06;5046315;28;20202;-83
2023/12/29 08:27:44;;;;;;;7.73;1.63;;;;;;;11.33;73.12;100081.56;5037128;28;20205;-83
2023/12/29 08:30:11;;;;;;;7.73;2.00;;;;;;;11.24;72.92;100102.72;5037471;28;20270;-83
2023/12/29 08:32:38;;;;;;;3.27;1.27;;;;;;;11.35;73.22;100100.66;5035615;28;20209;-81
2023/12/29 08:35:06;;;;;;;3.07;1.23;;;;;;;11.28;72.40;100130.50;5036226;28;20713;-82
2023/12/29 08:37:33;;;;;;;4.33;1.43;;;;;;;11.32;72.91;100126.91;5036074;28;20665;-81
2023/12/29 08:40:01;;;;;;;5.87;1.43;;;;;;;11.51;72.48;100135.91;5036378;28;20691;-81
2023/12/29 08:42:28;;;;;;;2.63;1.27;;;;;;;11.37;72.43;100152.88;5036486;28;20245;-81
2023/12/29 08:44:54;;;;;;;4.10;1.40;;;;;;;11.31;71.47;100146.91;5035949;28;20228;-81
2023/12/29 08:47:20;;;;;;;5.53;1.40;;;;;;;11.46;71.68;100155.28;5034305;28;20274;-81
2023/12/29 08:49:48;;;;;;;3.93;1.10;;;;;;;11.38;72.06;100151.97;5035698;28;20613;-81
2023/12/29 08:52:15;;;;;;;8.30;1.40;;;;;;;11.36;71.61;100165.13;5035708;28;20211;-81
2023/12/29 08:54:41;;;;;;;4.47;1.50;;;;;;;11.40;71.85;100165.91;5035120;28;20238;-81
2023/12/29 08:57:10;;;;;;;3.97;1.80;;;;;;;11.44;71.63;100162.28;5035514;28;20206;-82
2023/12/29 08:59:36;;;;;;;6.73;2.17;;;;;;;11.29;71.29;100159.16;5035821;28;20216;-82
2023/12/29 09:02:03;;;;;;;3.10;1.37;;;;;;;11.42;71.65;100140.56;5035777;28;20209;-82
2023/12/29 09:04:29;;;;;;;4.93;1.73;;;;;;;11.55;71.39;100134.09;5036112;28;20223;-82
2023/12/29 09:06:55;;;;;;;5.20;1.60;;;;;;;11.50;71.60;100143.81;5036328;28;20261;-81
2023/12/29 09:09:23;;;;;;;5.47;1.40;;;;;;;11.65;71.64;100124.22;5035789;28;20213;-81
2023/12/29 09:11:49;;;;;;;2.80;1.00;;;;;;;11.64;71.42;100136.44;5035368;28;20216;-81
2023/12/29 09:14:17;;;;;;;5.33;1.40;;;;;;;11.36;71.43;100140.72;5035029;28;20257;-81
2023/12/29 09:16:46;;;;;;;3.53;1.13;;;;;;;11.37;71.75;100127.59;5034941;28;20207;-81
2023/12/29 09:19:13;;;;;;;3.73;1.20;;;;;;;11.53;72.49;100121.09;5035909;28;20586;-81
2023/12/29 09:21:39;;;;;;;4.60;1.60;;;;;;;11.66;71.87;100124.19;5036713;28;20672;-81
2023/12/29 09:24:06;;;;;;;5.97;2.60;;;;;;;11.67;71.07;100122.44;5035655;28;20232;-81
2023/12/29 09:26:33;;;;;;;6.87;4.13;;;;;;;11.59;71.84;100134.88;5035902;28;20837;-80
2023/12/29 09:28:59;;;;;;;4.03;1.53;;;;;;;11.72;71.24;100133.63;5034995;28;20213;-81
2023/12/29 09:31:27;;;;;;;2.97;1.30;;;;;;;11.69;71.96;100150.25;5035173;28;20268;-80
2023/12/29 09:33:53;;;;;;;5.80;1.30;;;;;;;11.65;72.40;100150.38;5035198;28;20251;-79
2023/12/29 09:36:20;;;;;;;7.30;1.60;;;;;;;11.45;73.60;100130.00;5035902;28;20229;-80
2023/12/29 09:38:46;;;;;;;3.07;1.90;;;;;;;11.48;74.79;100090.75;5032250;28;20207;-79
2023/12/29 09:41:15;;;;;;;2.87;0.90;;;;;;;11.29;74.94;100070.31;5036246;28;20266;-81
2023/12/29 09:43:42;;;;;;;3.40;1.50;;;;;;;11.38;75.31;100071.84;5037101;28;20241;-84
2023/12/29 09:46:10;;;;;;;3.73;1.13;;;;;;;11.04;76.19;100066.66;5027929;28;20202;-85
2023/12/29 09:48:40;;;;;;;4.80;1.37;;;;;;;10.88;79.64;99972.22;5036386;28;20267;-85
2023/12/29 09:51:07;;;;;;;3.57;1.43;;;;;;;11.02;80.32;99924.81;5035781;28;20206;-84
2023/12/29 09:53:36;;;;;;;5.93;1.20;;;;;;;10.61;83.05;99859.84;5035769;28;20226;-86
2023/12/29 09:56:06;;;;;;;2.17;1.20;;;;;;;10.65;85.02;99788.41;5034823;28;20602;-84
2023/12/29 09:58:33;;;;;;;2.93;1.80;;;;;;;10.48;86.33;99720.19;5035959;28;20268;-83
2023/12/29 10:01:02;;;;;;;2.93;1.30;;;;;;;10.66;85.29;99716.16;5036668;28;20206;-81
2023/12/29 10:03:28;;;;;;;1.27;0.90;;;;;;;10.72;85.45;99702.91;5039247;28;20252;-83
2023/12/29 10:06:00;;;;;;;3.60;1.20;;;;;;;10.75;85.19;99710.66;5039928;28;20203;-82
2023/12/29 10:08:28;;;;;;;4.10;1.70;;;;;;;10.68;85.69;99698.69;5039770;28;20190;-82
2023/12/29 10:10:58;;;;;;;5.03;1.70;;;;;;;10.73;85.55;99699.41;5038773;28;20202;-83
2023/12/29 10:13:27;;;;;;;4.10;1.83;;;;;;;10.68;86.30;99704.78;5040568;28;20281;-81
2023/12/29 10:16:04;;;;;;;3.73;1.80;;;;;;;10.83;85.38;99690.38;5039290;28;20226;-83
2023/12/29 10:18:37;;;;;;;2.73;1.20;;;;;;;10.41;88.06;99703.88;5039582;28;20265;-83
2023/12/29 10:21:13;;;;;;;3.03;0.90;;;;;;;10.33;91.09;99607.59;5040377;28;20206;-82
2023/12/29 10:23:43;;;;;;;2.60;0.90;;;;;;;10.51;90.66;99593.09;5038927;28;20221;-83
2023/12/29 10:26:12;;;;;;;2.40;0.70;;;;;;;10.39;91.26;99577.84;5038691;28;20202;-82
2023/12/29 10:28:38;;;;;;;1.73;0.90;;;;;;;10.47;91.64;99565.41;5039384;28;20210;-83
2023/12/29 10:31:05;;;;;;;2.47;0.80;;;;;;;10.50;92.02;99557.50;5040059;28;20206;-83
2023/12/29 10:33:32;;;;;;;1.63;0.80;;;;;;;10.57;91.80;99539.88;5039010;28;20222;-83
2023/12/29 10:36:02;;;;;;;1.63;0.80;;;;;;;10.67;91.47;99548.25;5039566;28;20225;-82
2023/12/29 10:38:30;;;;;;;1.17;0.80;;;;;;;10.48;94.48;99519.28;5039059;28;20217;-82
2023/12/29 10:41:11;;;;;;;1.93;0.90;;;;;;;10.39;94.25;99489.16;5039451;28;20857;-83
2023/12/29 10:43:37;;;;;;;3.50;0.97;;;;;;;10.49;94.65;99469.66;5039560;28;20234;-83
2023/12/29 10:46:07;;;;;;;2.50;1.20;;;;;;;10.26;95.33;99456.50;5039419;28;20198;-83
2023/12/29 10:48:33;;;;;;;3.43;0.83;;;;;;;10.41;95.03;99458.66;5039079;28;20206;-83
2023/12/29 10:51:01;;;;;;;1.97;0.73;;;;;;;10.45;93.87;99481.13;5039464;28;20746;-83
2023/12/29 10:53:29;;;;;;;1.30;0.80;;;;;;;10.53;92.63;99493.91;5038584;28;20233;-83
2023/12/29 10:55:58;;;;;;;1.03;0.70;;;;;;;10.34;93.75;99498.88;5038878;28;20276;-83
2023/12/29 10:58:26;;;;;;;2.00;0.83;;;;;;;10.46;93.85;99466.31;5039144;28;20215;-82
2023/12/29 11:00:53;;;;;;;1.30;0.60;;;;;;;10.37;92.71;99477.06;5039256;28;20209;-84
2023/12/29 11:03:20;;;;;;;0.93;0.50;;;;;;;10.47;92.90;99481.91;5035314;28;20786;-83
2023/12/29 11:05:46;;;;;;;1.17;0.70;;;;;;;10.19;90.76;99509.75;5037930;28;20247;-82
2023/12/29 11:08:16;;;;;;;1.60;0.70;;;;;;;10.58;90.88;99501.56;5037815;28;20269;-82
2023/12/29 11:10:45;;;;;;;1.27;0.80;;;;;;;10.63;90.72;99517.94;5037949;28;20206;-82
2023/12/29 11:13:13;;;;;;;0.60;0.57;;;;;;;10.57;90.04;99520.75;5037774;28;20226;-82
2023/12/29 11:15:44;;;;;;;1.50;0.60;;;;;;;10.60;88.30;99558.00;5036786;28;20229;-82
2023/12/29 11:18:13;;;;;;;1.17;0.50;;;;;;;10.40;88.68;99589.97;5038189;28;20210;-81
2023/12/29 11:20:40;;;;;;;1.30;0.70;;;;;;;10.35;90.88;99547.56;5038902;28;20210;-81
2023/12/29 11:23:08;;;;;;;0.80;0.50;;;;;;;10.45;88.22;99559.38;5037077;28;20288;-80
2023/12/29 11:25:34;;;;;;;0.93;0.47;;;;;;;10.46;88.35;99571.50;5036199;28;20251;-82
2023/12/29 11:28:03;;;;;;;0.53;0.50;;;;;;;10.69;88.42;99570.75;5035694;28;20260;-81